createdAt,value
2018-08-06T00:00:51.899Z,23.65
2018-08-06T00:01:52.422Z,23.68
2018-08-06T00:02:52.426Z,23.65
2018-08-06T00:03:52.169Z,23.63
2018-08-06T00:04:52.170Z,23.68
2018-08-06T00:05:52.424Z,23.63
2018-08-06T00:06:52.446Z,23.65
2018-08-06T00:07:52.435Z,23.55
2018-08-06T00:08:52.452Z,23.54
2018-08-06T00:09:52.189Z,23.5
2018-08-06T00:10:52.184Z,23.39
2018-08-06T00:11:52.448Z,23.44
2018-08-06T00:12:51.948Z,23.43
2018-08-06T00:13:52.196Z,23.37
2018-08-06T00:14:52.459Z,23.48
2018-08-06T00:15:52.199Z,23.54
2018-08-06T00:16:52.204Z,23.41
2018-08-06T00:17:52.480Z,23.43
2018-08-06T00:18:52.202Z,23.55
2018-08-06T00:19:52.467Z,23.37
2018-08-06T00:20:52.476Z,23.39
2018-08-06T00:21:52.465Z,23.47
2018-08-06T00:22:52.492Z,23.43
2018-08-06T00:23:52.233Z,23.43
2018-08-06T00:24:52.227Z,23.44
2018-08-06T00:25:52.485Z,23.44
2018-08-06T00:26:52.492Z,23.47
2018-08-06T00:27:52.244Z,23.44
2018-08-06T00:28:52.236Z,23.36
2018-08-06T00:29:52.246Z,23.32
2018-08-06T00:30:52.558Z,23.4
2018-08-06T00:31:51.990Z,23.31
2018-08-06T00:32:52.262Z,23.32
2018-08-06T00:33:52.517Z,23.28
2018-08-06T00:34:52.264Z,23.27
2018-08-06T00:35:52.353Z,23.27
2018-08-06T00:36:52.516Z,23.21
2018-08-06T00:37:52.007Z,23.21
2018-08-06T00:38:52.525Z,23.15
2018-08-06T00:39:52.282Z,23.13
2018-08-06T00:40:52.271Z,23.18
2018-08-06T00:41:52.319Z,23.23
2018-08-06T00:42:52.307Z,23.13
2018-08-06T00:43:52.289Z,23.17
2018-08-06T00:44:52.300Z,23.21
2018-08-06T00:45:52.291Z,23.12
2018-08-06T00:46:52.553Z,23.1
2018-08-06T00:47:52.557Z,23.09
2018-08-06T00:48:52.312Z,22.91
2018-08-06T00:49:52.553Z,22.96
2018-08-06T00:50:52.564Z,23.02
2018-08-06T00:51:52.305Z,23.1
2018-08-06T00:52:52.573Z,22.94
2018-08-06T00:53:52.311Z,23.05
2018-08-06T00:54:52.584Z,23.08
2018-08-06T00:55:52.597Z,23.09
2018-08-06T00:56:52.574Z,23
2018-08-06T00:57:52.331Z,22.96
2018-08-06T00:58:52.072Z,22.94
2018-08-06T00:59:52.331Z,22.98
2018-08-06T01:00:52.076Z,22.98
2018-08-06T01:01:52.341Z,22.84
2018-08-06T01:02:52.349Z,22.84
2018-08-06T01:03:52.603Z,22.83
2018-08-06T01:04:52.622Z,22.83
2018-08-06T01:05:52.361Z,22.93
2018-08-06T01:06:52.605Z,22.96
2018-08-06T01:07:52.364Z,23.02
2018-08-06T01:08:52.361Z,23.06
2018-08-06T01:09:52.356Z,23.03
2018-08-06T01:10:52.622Z,22.94
2018-08-06T01:11:52.108Z,23.02
2018-08-06T01:12:52.626Z,22.94
2018-08-06T01:13:52.629Z,22.87
2018-08-06T01:14:52.377Z,22.84
2018-08-06T01:15:52.638Z,22.84
2018-08-06T01:16:52.636Z,22.78
2018-08-06T01:17:52.652Z,22.8
2018-08-06T01:18:52.637Z,22.93
2018-08-06T01:19:52.145Z,22.83
2018-08-06T01:20:52.661Z,22.85
2018-08-06T01:21:52.132Z,22.84
2018-08-06T01:22:52.660Z,22.91
2018-08-06T01:23:52.667Z,22.88
2018-08-06T01:24:52.405Z,22.87
2018-08-06T01:25:52.405Z,22.85
2018-08-06T01:26:52.405Z,22.81
2018-08-06T01:27:52.418Z,22.78
2018-08-06T01:28:52.160Z,22.69
2018-08-06T01:29:52.419Z,22.65
2018-08-06T01:30:52.423Z,22.66
2018-08-06T01:31:52.688Z,22.63
2018-08-06T01:32:52.422Z,22.63
2018-08-06T01:33:52.679Z,22.57
2018-08-06T01:34:52.685Z,22.59
2018-08-06T01:35:52.684Z,22.59
2018-08-06T01:36:52.689Z,22.65
2018-08-06T01:37:52.444Z,22.59
2018-08-06T01:38:52.691Z,22.55
2018-08-06T01:39:52.696Z,22.57
2018-08-06T01:40:52.448Z,22.6
2018-08-06T01:41:52.698Z,22.54
2018-08-06T01:42:52.697Z,22.48
2018-08-06T01:43:52.706Z,22.44
2018-08-06T01:44:52.703Z,22.47
2018-08-06T01:45:52.260Z,22.44
2018-08-06T01:46:52.470Z,22.48
2018-08-06T01:47:52.724Z,22.47
2018-08-06T01:48:52.718Z,22.29
2018-08-06T01:49:52.470Z,22.29
2018-08-06T01:50:52.734Z,22.36
2018-08-06T01:51:52.726Z,22.33
2018-08-06T01:52:52.725Z,22.26
2018-08-06T01:53:52.726Z,22.25
2018-08-06T01:54:52.479Z,22.28
2018-08-06T01:55:52.741Z,22.28
2018-08-06T01:56:52.485Z,22.26
2018-08-06T01:57:52.483Z,22.26
2018-08-06T01:58:52.490Z,22.25
2018-08-06T01:59:52.514Z,22.2
2018-08-06T02:00:52.749Z,22.25
2018-08-06T02:01:52.752Z,22.22
2018-08-06T02:02:52.501Z,22.22
2018-08-06T02:03:52.768Z,22.18
2018-08-06T02:04:52.757Z,22.17
2018-08-06T02:05:52.508Z,22.18
2018-08-06T02:06:52.771Z,22.2
2018-08-06T02:07:52.516Z,22.17
2018-08-06T02:08:52.770Z,22.18
2018-08-06T02:09:52.777Z,22.18
2018-08-06T02:10:52.778Z,22.23
2018-08-06T02:11:52.778Z,22.14
2018-08-06T02:12:52.523Z,22.14
2018-08-06T02:13:52.525Z,22.18
2018-08-06T02:14:52.544Z,22.14
2018-08-06T02:15:52.787Z,22.11
2018-08-06T02:16:52.271Z,22.15
2018-08-06T02:17:52.793Z,22.11
2018-08-06T02:18:52.796Z,22.17
2018-08-06T02:19:52.816Z,22.14
2018-08-06T02:20:52.813Z,22.14
2018-08-06T02:21:52.809Z,22.14
2018-08-06T02:22:52.813Z,22.11
2018-08-06T02:23:52.556Z,22.02
2018-08-06T02:24:52.814Z,22.02
2018-08-06T02:25:52.550Z,21.96
2018-08-06T02:26:52.832Z,21.91
2018-08-06T02:27:52.815Z,21.93
2018-08-06T02:28:52.826Z,21.99
2018-08-06T02:29:52.819Z,21.92
2018-08-06T02:30:52.832Z,21.95
2018-08-06T02:31:52.850Z,21.91
2018-08-06T02:32:52.620Z,21.92
2018-08-06T02:33:52.617Z,21.88
2018-08-06T02:34:52.839Z,21.83
2018-08-06T02:35:52.837Z,21.85
2018-08-06T02:36:52.838Z,21.85
2018-08-06T02:37:52.585Z,21.82
2018-08-06T02:38:52.860Z,21.8
2018-08-06T02:39:52.849Z,21.83
2018-08-06T02:40:52.597Z,21.92
2018-08-06T02:41:52.597Z,21.92
2018-08-06T02:42:52.875Z,21.88
2018-08-06T02:43:52.597Z,21.77
2018-08-06T02:44:52.869Z,21.85
2018-08-06T02:45:52.605Z,21.82
2018-08-06T02:46:52.870Z,21.8
2018-08-06T02:47:52.865Z,21.82
2018-08-06T02:48:53.126Z,21.77
2018-08-06T02:49:52.882Z,21.83
2018-08-06T02:50:52.873Z,21.82
2018-08-06T02:51:52.364Z,21.83
2018-08-06T02:52:52.914Z,21.83
2018-08-06T02:53:52.886Z,21.8
2018-08-06T02:54:52.625Z,21.93
2018-08-06T02:55:52.885Z,21.93
2018-08-06T02:56:52.631Z,21.96
2018-08-06T02:57:52.901Z,21.88
2018-08-06T02:58:52.380Z,21.96
2018-08-06T02:59:52.896Z,21.92
2018-08-06T03:00:52.642Z,21.92
2018-08-06T03:01:52.651Z,21.95
2018-08-06T03:02:52.911Z,21.92
2018-08-06T03:03:52.911Z,21.91
2018-08-06T03:04:52.908Z,21.93
2018-08-06T03:05:52.726Z,21.83
2018-08-06T03:06:52.915Z,21.89
2018-08-06T03:07:52.931Z,21.92
2018-08-06T03:08:52.952Z,21.91
2018-08-06T03:09:52.673Z,21.89
2018-08-06T03:10:52.401Z,21.83
2018-08-06T03:11:52.918Z,21.79
2018-08-06T03:12:52.925Z,21.83
2018-08-06T03:13:52.942Z,21.83
2018-08-06T03:14:52.949Z,21.88
2018-08-06T03:15:52.697Z,21.73
2018-08-06T03:16:53.004Z,21.77
2018-08-06T03:17:52.986Z,21.79
2018-08-06T03:18:52.682Z,21.72
2018-08-06T03:19:52.685Z,21.7
2018-08-06T03:20:52.716Z,21.67
2018-08-06T03:21:52.946Z,21.7
2018-08-06T03:22:52.692Z,21.7
2018-08-06T03:23:52.692Z,21.66
2018-08-06T03:24:52.715Z,21.69
2018-08-06T03:25:52.442Z,21.57
2018-08-06T03:26:52.955Z,21.61
2018-08-06T03:27:52.961Z,21.6
2018-08-06T03:28:52.703Z,21.58
2018-08-06T03:29:52.969Z,21.6
2018-08-06T03:30:52.971Z,21.6
2018-08-06T03:31:52.990Z,21.61
2018-08-06T03:32:52.728Z,21.58
2018-08-06T03:33:52.737Z,21.6
2018-08-06T03:34:52.991Z,21.58
2018-08-06T03:35:52.714Z,21.52
2018-08-06T03:36:52.742Z,21.45
2018-08-06T03:37:52.982Z,21.46
2018-08-06T03:38:52.727Z,21.48
2018-08-06T03:39:52.748Z,21.51
2018-08-06T03:40:53.010Z,21.54
2018-08-06T03:41:52.483Z,21.48
2018-08-06T03:42:52.802Z,21.51
2018-08-06T03:43:52.996Z,21.48
2018-08-06T03:44:52.756Z,21.51
2018-08-06T03:45:52.767Z,21.39
2018-08-06T03:46:53.074Z,21.52
2018-08-06T03:47:52.491Z,21.48
2018-08-06T03:48:53.806Z,21.43
2018-08-06T03:49:52.753Z,21.39
2018-08-06T03:50:52.750Z,21.46
2018-08-06T03:51:52.758Z,21.33
2018-08-06T03:52:52.838Z,21.4
2018-08-06T03:53:53.035Z,21.39
2018-08-06T03:54:53.024Z,21.39
2018-08-06T03:55:53.028Z,21.4
2018-08-06T03:56:52.764Z,21.35
2018-08-06T03:57:52.828Z,21.36
2018-08-06T03:58:52.538Z,21.25
2018-08-06T03:59:52.779Z,21.3
2018-08-06T04:00:52.775Z,21.33
2018-08-06T04:01:52.786Z,21.35
2018-08-06T04:02:52.532Z,21.3
2018-08-06T04:03:52.786Z,21.29
2018-08-06T04:04:52.784Z,21.35
2018-08-06T04:05:52.795Z,21.3
2018-08-06T04:06:52.787Z,21.43
2018-08-06T04:07:52.787Z,21.32
2018-08-06T04:08:52.533Z,21.29
2018-08-06T04:09:53.049Z,21.35
2018-08-06T04:10:52.789Z,21.36
2018-08-06T04:11:52.539Z,21.33
2018-08-06T04:12:52.799Z,21.35
2018-08-06T04:13:52.825Z,21.35
2018-08-06T04:14:52.808Z,21.39
2018-08-06T04:15:52.811Z,21.29
2018-08-06T04:16:52.551Z,21.36
2018-08-06T04:17:52.820Z,21.43
2018-08-06T04:18:53.088Z,21.35
2018-08-06T04:19:52.560Z,21.36
2018-08-06T04:20:52.562Z,21.42
2018-08-06T04:21:53.103Z,21.43
2018-08-06T04:22:53.091Z,21.43
2018-08-06T04:23:52.571Z,21.51
2018-08-06T04:24:52.844Z,21.51
2018-08-06T04:25:52.569Z,21.43
2018-08-06T04:26:53.093Z,21.52
2018-08-06T04:27:52.841Z,21.54
2018-08-06T04:28:52.575Z,21.5
2018-08-06T04:29:52.584Z,21.55
2018-08-06T04:30:52.858Z,21.51
2018-08-06T04:31:53.110Z,21.57
2018-08-06T04:32:52.987Z,21.57
2018-08-06T04:33:52.894Z,21.61
2018-08-06T04:34:53.111Z,21.7
2018-08-06T04:35:53.112Z,21.82
2018-08-06T04:36:52.612Z,21.99
2018-08-06T04:37:52.872Z,21.98
2018-08-06T04:38:52.857Z,22.08
2018-08-06T04:39:52.867Z,22.07
2018-08-06T04:40:53.120Z,22.07
2018-08-06T04:41:53.127Z,22.1
2018-08-06T04:42:52.864Z,22.13
2018-08-06T04:43:52.618Z,22.22
2018-08-06T04:44:52.871Z,22.22
2018-08-06T04:45:53.220Z,22.2
2018-08-06T04:46:52.621Z,22.28
2018-08-06T04:47:52.623Z,22.3
2018-08-06T04:48:53.138Z,22.44
2018-08-06T04:49:54.224Z,22.59
2018-08-06T04:50:52.631Z,22.63
2018-08-06T04:51:52.905Z,22.73
2018-08-06T04:52:52.894Z,22.87
2018-08-06T04:53:52.895Z,23.18
2018-08-06T04:54:53.179Z,23.46
2018-08-06T04:55:52.909Z,23.73
2018-08-06T04:56:52.902Z,23.95
2018-08-06T04:57:52.909Z,24.05
2018-08-06T04:58:52.910Z,24.3
2018-08-06T04:59:53.179Z,24.58
2018-08-06T05:00:52.937Z,24.95
2018-08-06T05:01:52.928Z,25.08
2018-08-06T05:02:53.176Z,25.29
2018-08-06T05:03:53.203Z,25.58
2018-08-06T05:04:52.932Z,25.75
2018-08-06T05:05:53.201Z,25.87
2018-08-06T05:06:53.299Z,26.05
2018-08-06T05:07:52.964Z,26.4
2018-08-06T05:08:52.698Z,26.58
2018-08-06T05:09:52.710Z,26.85
2018-08-06T05:10:53.248Z,27.12
2018-08-06T05:11:53.216Z,27.25
2018-08-06T05:12:53.267Z,27.42
2018-08-06T05:13:52.996Z,27.49
2018-08-06T05:14:52.979Z,27.64
2018-08-06T05:15:53.270Z,27.47
2018-08-06T05:16:52.998Z,27.39
2018-08-06T05:17:53.003Z,27.2
2018-08-06T05:18:53.010Z,27.1
2018-08-06T05:19:53.014Z,27.05
2018-08-06T05:20:53.015Z,27.08
2018-08-06T05:21:52.762Z,27.11
2018-08-06T05:22:52.774Z,27.03
2018-08-06T05:23:53.295Z,26.99
2018-08-06T05:24:53.635Z,26.83
2018-08-06T05:25:53.044Z,26.56
2018-08-06T05:26:53.052Z,26.36
2018-08-06T05:27:53.067Z,26.1
2018-08-06T05:28:53.319Z,25.8
2018-08-06T05:29:53.327Z,25.58
2018-08-06T05:30:53.078Z,25.28
2018-08-06T05:31:53.089Z,24.99
2018-08-06T05:32:53.339Z,24.8
2018-08-06T05:33:53.357Z,24.73
2018-08-06T05:34:53.115Z,24.42
2018-08-06T05:35:53.108Z,24.3
2018-08-06T05:36:53.373Z,24.1
2018-08-06T05:37:53.376Z,24.01
2018-08-06T05:38:53.359Z,23.96
2018-08-06T05:39:53.493Z,23.98
2018-08-06T05:40:53.376Z,23.98
2018-08-06T05:41:53.142Z,23.96
2018-08-06T05:42:53.402Z,24.05
2018-08-06T05:43:52.879Z,23.96
2018-08-06T05:44:53.142Z,24.03
2018-08-06T05:45:53.144Z,24.05
2018-08-06T05:46:53.153Z,24.14
2018-08-06T05:47:53.149Z,24.32
2018-08-06T05:48:53.402Z,24.33
2018-08-06T05:49:53.411Z,24.45
2018-08-06T05:50:53.425Z,24.6
2018-08-06T05:51:53.185Z,24.51
2018-08-06T05:52:53.186Z,24.43
2018-08-06T05:53:53.435Z,24.47
2018-08-06T05:54:53.451Z,24.48
2018-08-06T05:55:53.202Z,24.53
2018-08-06T05:56:53.206Z,24.53
2018-08-06T05:57:53.459Z,24.55
2018-08-06T05:58:53.464Z,24.47
2018-08-06T05:59:53.455Z,24.58
2018-08-06T06:00:53.452Z,24.76
2018-08-06T06:01:53.462Z,24.92
2018-08-06T06:02:53.274Z,25.17
2018-08-06T06:03:52.962Z,25.33
2018-08-06T06:04:53.225Z,25.43
2018-08-06T06:05:53.231Z,25.4
2018-08-06T06:06:53.235Z,25.43
2018-08-06T06:07:53.529Z,25.41
2018-08-06T06:08:53.239Z,25.33
2018-08-06T06:09:53.261Z,25.4
2018-08-06T06:10:53.277Z,25.26
2018-08-06T06:11:53.265Z,25.1
2018-08-06T06:12:53.278Z,25.1
2018-08-06T06:13:53.517Z,25.03
2018-08-06T06:14:53.277Z,24.96
2018-08-06T06:15:53.266Z,24.99
2018-08-06T06:16:53.280Z,25.22
2018-08-06T06:17:53.301Z,25.46
2018-08-06T06:18:53.037Z,25.63
2018-08-06T06:19:55.400Z,25.66
2018-08-06T06:20:53.291Z,25.85
2018-08-06T06:21:53.035Z,26.15
2018-08-06T06:22:53.287Z,26.68
2018-08-06T06:23:53.042Z,27
2018-08-06T06:24:53.324Z,27.22
2018-08-06T06:25:53.450Z,27.36
2018-08-06T06:26:53.322Z,27.59
2018-08-06T06:27:53.598Z,27.9
2018-08-06T06:28:53.335Z,28.26
2018-08-06T06:29:53.586Z,28.75
2018-08-06T06:30:53.372Z,28.98
2018-08-06T06:31:53.353Z,29.13
2018-08-06T06:32:53.355Z,29.08
2018-08-06T06:33:53.352Z,29.22
2018-08-06T06:34:53.919Z,29.56
2018-08-06T06:35:53.387Z,29.71
2018-08-06T06:36:53.372Z,29.82
2018-08-06T06:37:53.376Z,29.9
2018-08-06T06:38:53.657Z,29.91
2018-08-06T06:39:53.137Z,30.05
2018-08-06T06:40:53.392Z,30.31
2018-08-06T06:41:53.527Z,30.34
2018-08-06T06:42:53.666Z,30.34
2018-08-06T06:43:53.682Z,30.53
2018-08-06T06:44:53.428Z,30.55
2018-08-06T06:45:53.702Z,30.63
2018-08-06T06:46:53.442Z,30.61
2018-08-06T06:47:53.450Z,30.75
2018-08-06T06:48:53.550Z,31.02
2018-08-06T06:49:53.216Z,31.43
2018-08-06T06:50:53.465Z,31.51
2018-08-06T06:51:53.474Z,31.55
2018-08-06T06:52:53.744Z,31.65
2018-08-06T06:53:53.492Z,31.64
2018-08-06T06:54:53.491Z,31.81
2018-08-06T06:55:53.508Z,31.93
2018-08-06T06:56:53.504Z,31.97
2018-08-06T06:57:53.781Z,32.11
2018-08-06T06:58:53.553Z,32.34
2018-08-06T06:59:53.588Z,32.64
2018-08-06T07:00:53.798Z,32.73
2018-08-06T07:01:53.600Z,32.89
2018-08-06T07:02:53.816Z,33.09
2018-08-06T07:03:53.563Z,33.27
2018-08-06T07:04:53.319Z,33.45
2018-08-06T07:05:53.591Z,33.68
2018-08-06T07:06:53.590Z,33.67
2018-08-06T07:07:53.592Z,33.67
2018-08-06T07:08:53.862Z,33.62
2018-08-06T07:09:53.874Z,33.8
2018-08-06T07:10:53.865Z,34.05
2018-08-06T07:11:53.633Z,34.29
2018-08-06T07:12:53.643Z,34.43
2018-08-06T07:13:54.249Z,34.45
2018-08-06T07:14:53.668Z,34.27
2018-08-06T07:15:53.922Z,33.96
2018-08-06T07:16:53.932Z,33.64
2018-08-06T07:17:53.931Z,32.95
2018-08-06T07:18:53.940Z,32.19
2018-08-06T07:19:53.435Z,31.74
2018-08-06T07:20:53.706Z,31.4
2018-08-06T07:21:53.708Z,31.4
2018-08-06T07:22:53.975Z,31.39
2018-08-06T07:23:53.996Z,31.25
2018-08-06T07:24:53.989Z,30.8
2018-08-06T07:25:53.800Z,30.73
2018-08-06T07:26:54.008Z,30.75
2018-08-06T07:27:53.792Z,31.03
2018-08-06T07:28:54.035Z,30.72
2018-08-06T07:29:53.780Z,30.37
2018-08-06T07:30:54.043Z,29.98
2018-08-06T07:31:53.798Z,29.61
2018-08-06T07:32:53.799Z,29.65
2018-08-06T07:33:54.262Z,29.76
2018-08-06T07:34:54.063Z,29.84
2018-08-06T07:35:53.818Z,29.95
2018-08-06T07:36:54.109Z,30.09
2018-08-06T07:37:54.102Z,30.44
2018-08-06T07:38:54.102Z,30.61
2018-08-06T07:39:54.100Z,30.92
2018-08-06T07:40:53.863Z,31.24
2018-08-06T07:41:53.871Z,31.17
2018-08-06T07:42:53.637Z,30.9
2018-08-06T07:43:53.882Z,30.75
2018-08-06T07:44:53.911Z,30.75
2018-08-06T07:45:53.932Z,30.77
2018-08-06T07:46:54.205Z,30.78
2018-08-06T07:47:54.184Z,31
2018-08-06T07:48:53.930Z,31.4
2018-08-06T07:49:54.131Z,31.85
2018-08-06T07:50:53.928Z,32.07
2018-08-06T07:51:54.198Z,32.08
2018-08-06T07:52:54.205Z,31.99
2018-08-06T07:53:53.964Z,31.74
2018-08-06T07:54:53.965Z,31.51
2018-08-06T07:55:53.965Z,31.06
2018-08-06T07:56:54.226Z,30.85
2018-08-06T07:57:53.992Z,30.8
2018-08-06T07:58:54.256Z,30.9
2018-08-06T07:59:54.082Z,31.42
2018-08-06T08:00:54.248Z,31.4
2018-08-06T08:01:54.012Z,31.37
2018-08-06T08:02:54.285Z,31.34
2018-08-06T08:03:54.018Z,31.36
2018-08-06T08:04:53.775Z,31.7
2018-08-06T08:05:53.789Z,31.96
2018-08-06T08:06:54.323Z,32.36
2018-08-06T08:07:53.803Z,32.58
2018-08-06T08:08:54.343Z,32.38
2018-08-06T08:09:54.322Z,32.21
2018-08-06T08:10:54.078Z,32.31
2018-08-06T08:11:54.391Z,32.55
2018-08-06T08:12:54.355Z,33.09
2018-08-06T08:13:54.354Z,33.4
2018-08-06T08:14:54.363Z,33.68
2018-08-06T08:15:54.139Z,33.69
2018-08-06T08:16:54.374Z,33.68
2018-08-06T08:17:54.383Z,33.61
2018-08-06T08:18:54.398Z,33.73
2018-08-06T08:19:54.679Z,33.95
2018-08-06T08:20:56.027Z,34.05
2018-08-06T08:21:54.418Z,34.25
2018-08-06T08:22:54.176Z,33.8
2018-08-06T08:23:53.918Z,33.36
2018-08-06T08:24:54.440Z,32.68
2018-08-06T08:25:54.441Z,32.21
2018-08-06T08:26:54.458Z,32
2018-08-06T08:27:54.203Z,31.99
2018-08-06T08:28:54.471Z,32.09
2018-08-06T08:29:54.222Z,32.12
2018-08-06T08:30:54.241Z,31.97
2018-08-06T08:31:54.497Z,32.04
2018-08-06T08:32:54.247Z,32.11
2018-08-06T08:33:54.660Z,32.18
2018-08-06T08:34:54.275Z,32.14
2018-08-06T08:35:54.264Z,32.11
2018-08-06T08:36:54.547Z,32.08
2018-08-06T08:37:54.538Z,32.12
2018-08-06T08:38:54.286Z,32
2018-08-06T08:39:54.302Z,32.01
2018-08-06T08:40:54.561Z,32.08
2018-08-06T08:41:54.568Z,32.16
2018-08-06T08:42:54.589Z,32.22
2018-08-06T08:43:54.579Z,32.3
2018-08-06T08:44:54.079Z,32.33
2018-08-06T08:45:54.338Z,32.34
2018-08-06T08:46:54.604Z,32.34
2018-08-06T08:47:54.379Z,32.55
2018-08-06T08:48:54.631Z,32.64
2018-08-06T08:49:54.363Z,32.58
2018-08-06T08:50:55.593Z,32.67
2018-08-06T08:51:54.395Z,32.59
2018-08-06T08:52:54.703Z,32.33
2018-08-06T08:53:54.658Z,31.97
2018-08-06T08:54:54.668Z,31.71
2018-08-06T08:55:54.432Z,31.42
2018-08-06T08:56:54.688Z,31.06
2018-08-06T08:57:54.702Z,30.88
2018-08-06T08:58:54.385Z,30.69
2018-08-06T08:59:54.454Z,30.57
2018-08-06T09:00:54.203Z,30.47
2018-08-06T09:01:54.452Z,30.34
2018-08-06T09:02:54.469Z,30.23
2018-08-06T09:03:54.728Z,30.13
2018-08-06T09:04:54.238Z,30.09
2018-08-06T09:05:54.758Z,30.16
2018-08-06T09:06:54.766Z,30.03
2018-08-06T09:07:54.767Z,29.87
2018-08-06T09:08:54.517Z,29.9
2018-08-06T09:09:54.783Z,29.9
2018-08-06T09:10:54.785Z,29.87
2018-08-06T09:11:54.786Z,29.94
2018-08-06T09:12:54.816Z,30.06
2018-08-06T09:13:54.623Z,30.3
2018-08-06T09:14:54.817Z,30.34
2018-08-06T09:15:54.556Z,30.43
2018-08-06T09:16:54.817Z,30.59
2018-08-06T09:17:54.852Z,30.75
2018-08-06T09:18:54.846Z,30.85
2018-08-06T09:19:54.847Z,30.78
2018-08-06T09:20:57.754Z,30.73
2018-08-06T09:21:54.857Z,30.62
2018-08-06T09:22:54.855Z,30.59
2018-08-06T09:23:54.864Z,30.47
2018-08-06T09:24:54.626Z,30.53
2018-08-06T09:25:54.883Z,30.51
2018-08-06T09:26:54.680Z,30.47
2018-08-06T09:27:54.933Z,30.44
2018-08-06T09:28:54.894Z,30.62
2018-08-06T09:29:54.645Z,30.78
2018-08-06T09:30:54.653Z,31.05
2018-08-06T09:31:54.682Z,31.18
2018-08-06T09:32:54.660Z,31.4
2018-08-06T09:33:54.457Z,31.52
2018-08-06T09:34:54.679Z,31.69
2018-08-06T09:35:54.681Z,31.81
2018-08-06T09:36:54.699Z,31.89
2018-08-06T09:37:55.022Z,31.96
2018-08-06T09:38:54.704Z,32.14
2018-08-06T09:39:54.960Z,32.07
2018-08-06T09:40:54.723Z,32.14
2018-08-06T09:41:54.988Z,32.03
2018-08-06T09:42:55.060Z,32.03
2018-08-06T09:43:54.736Z,32.09
2018-08-06T09:44:54.999Z,32.04
2018-08-06T09:45:55.009Z,31.93
2018-08-06T09:46:55.036Z,31.78
2018-08-06T09:47:55.040Z,31.73
2018-08-06T09:48:55.027Z,31.46
2018-08-06T09:49:55.039Z,31.36
2018-08-06T09:50:54.770Z,31.31
2018-08-06T09:51:54.529Z,31.34
2018-08-06T09:52:55.199Z,31.29
2018-08-06T09:53:54.795Z,31.28
2018-08-06T09:54:54.556Z,31.25
2018-08-06T09:55:54.829Z,31.29
2018-08-06T09:56:55.079Z,31.36
2018-08-06T09:57:54.832Z,31.39
2018-08-06T09:58:54.846Z,31.18
2018-08-06T09:59:54.853Z,31.09
2018-08-06T10:00:54.846Z,31.17
2018-08-06T10:01:55.109Z,31.42
2018-08-06T10:02:55.154Z,31.52
2018-08-06T10:03:55.130Z,31.61
2018-08-06T10:04:54.869Z,31.66
2018-08-06T10:05:55.757Z,31.74
2018-08-06T10:06:55.157Z,31.8
2018-08-06T10:07:54.903Z,31.7
2018-08-06T10:08:54.911Z,31.66
2018-08-06T10:09:55.166Z,31.49
2018-08-06T10:10:54.903Z,31.43
2018-08-06T10:11:55.287Z,31.56
2018-08-06T10:12:54.921Z,31.56
2018-08-06T10:13:55.188Z,31.54
2018-08-06T10:14:54.941Z,31.49
2018-08-06T10:15:54.944Z,31.49
2018-08-06T10:16:56.296Z,31.49
2018-08-06T10:17:54.954Z,31.51
2018-08-06T10:18:55.154Z,31.49
2018-08-06T10:19:55.259Z,31.47
2018-08-06T10:20:55.227Z,31.59
2018-08-06T10:21:56.044Z,31.62
2018-08-06T10:22:55.246Z,31.69
2018-08-06T10:23:54.757Z,31.76
2018-08-06T10:24:55.008Z,31.7
2018-08-06T10:25:55.022Z,31.66
2018-08-06T10:26:55.573Z,31.69
2018-08-06T10:27:54.774Z,31.66
2018-08-06T10:28:55.036Z,31.62
2018-08-06T10:29:55.037Z,31.7
2018-08-06T10:30:55.323Z,31.84
2018-08-06T10:31:55.316Z,31.81
2018-08-06T10:32:55.321Z,31.89
2018-08-06T10:33:55.336Z,32.11
2018-08-06T10:34:55.131Z,32.09
2018-08-06T10:35:55.339Z,32.26
2018-08-06T10:36:55.092Z,32.37
2018-08-06T10:37:55.356Z,32.43
2018-08-06T10:38:55.099Z,32.56
2018-08-06T10:39:55.103Z,32.55
2018-08-06T10:40:54.883Z,32.59
2018-08-06T10:41:54.858Z,32.59
2018-08-06T10:42:55.123Z,32.68
2018-08-06T10:43:55.372Z,32.78
2018-08-06T10:44:55.137Z,32.7
2018-08-06T10:45:55.139Z,32.87
2018-08-06T10:46:55.416Z,32.83
2018-08-06T10:47:55.423Z,32.86
2018-08-06T10:48:55.412Z,32.87
2018-08-06T10:49:55.168Z,32.87
2018-08-06T10:50:55.424Z,32.89
2018-08-06T10:51:54.925Z,32.82
2018-08-06T10:52:55.177Z,32.85
2018-08-06T10:53:55.609Z,32.93
2018-08-06T10:54:55.491Z,33
2018-08-06T10:55:54.989Z,33.14
2018-08-06T10:56:55.274Z,33.05
2018-08-06T10:57:55.208Z,33.14
2018-08-06T10:58:55.219Z,33.09
2018-08-06T10:59:55.250Z,33.15
2018-08-06T11:00:55.507Z,32.96
2018-08-06T11:01:55.248Z,32.93
2018-08-06T11:02:55.748Z,32.97
2018-08-06T11:03:55.587Z,32.9
2018-08-06T11:04:55.304Z,32.83
2018-08-06T11:05:55.281Z,32.77
2018-08-06T11:06:55.577Z,32.77
2018-08-06T11:07:55.034Z,32.73
2018-08-06T11:08:55.467Z,32.85
2018-08-06T11:09:55.551Z,33
2018-08-06T11:10:55.314Z,33.08
2018-08-06T11:11:55.613Z,33.11
2018-08-06T11:12:55.596Z,33.3
2018-08-06T11:13:55.338Z,33.49
2018-08-06T11:14:55.346Z,33.57
2018-08-06T11:15:55.343Z,33.5
2018-08-06T11:16:55.621Z,33.59
2018-08-06T11:17:55.386Z,33.71
2018-08-06T11:18:55.102Z,33.71
2018-08-06T11:19:55.109Z,33.69
2018-08-06T11:20:55.381Z,33.69
2018-08-06T11:21:55.126Z,33.73
2018-08-06T11:22:55.900Z,33.74
2018-08-06T11:23:55.651Z,33.71
2018-08-06T11:24:55.659Z,33.73
2018-08-06T11:25:55.663Z,33.65
2018-08-06T11:26:55.426Z,33.58
2018-08-06T11:27:55.432Z,33.59
2018-08-06T11:28:55.181Z,33.61
2018-08-06T11:29:55.438Z,33.61
2018-08-06T11:30:55.722Z,33.57
2018-08-06T11:31:55.707Z,33.52
2018-08-06T11:32:55.456Z,33.52
2018-08-06T11:33:55.477Z,33.67
2018-08-06T11:34:55.750Z,33.68
2018-08-06T11:35:55.505Z,33.8
2018-08-06T11:36:55.609Z,33.81
2018-08-06T11:37:55.241Z,33.8
2018-08-06T11:38:55.504Z,33.74
2018-08-06T11:39:55.248Z,33.76
2018-08-06T11:40:55.272Z,33.69
2018-08-06T11:41:55.515Z,33.62
2018-08-06T11:42:55.779Z,33.65
2018-08-06T11:43:55.793Z,33.64
2018-08-06T11:44:55.796Z,33.68
2018-08-06T11:45:55.851Z,33.68
2018-08-06T11:46:55.294Z,33.73
2018-08-06T11:47:55.859Z,33.52
2018-08-06T11:48:56.090Z,33.36
2018-08-06T11:49:55.836Z,33.31
2018-08-06T11:50:55.586Z,33.31
2018-08-06T11:51:55.848Z,33.3
2018-08-06T11:52:55.851Z,33.39
2018-08-06T11:53:55.895Z,33.42
2018-08-06T11:54:55.359Z,33.31
2018-08-06T11:55:55.373Z,33.32
2018-08-06T11:56:56.025Z,33.34
2018-08-06T11:57:55.634Z,33.34
2018-08-06T11:58:55.891Z,33.39
2018-08-06T11:59:55.641Z,33.36
2018-08-06T12:00:55.904Z,33.43
2018-08-06T12:01:56.058Z,33.49
2018-08-06T12:02:55.396Z,33.57
2018-08-06T12:03:55.667Z,33.58
2018-08-06T12:04:55.932Z,33.53
2018-08-06T12:05:55.950Z,33.59
2018-08-06T12:06:55.705Z,33.62
2018-08-06T12:07:55.966Z,33.57
2018-08-06T12:08:55.706Z,33.53
2018-08-06T12:09:55.723Z,33.42
2018-08-06T12:10:55.453Z,33.28
2018-08-06T12:11:55.721Z,33.19
2018-08-06T12:12:55.721Z,33.14
2018-08-06T12:13:55.471Z,33.05
2018-08-06T12:14:55.736Z,33.08
2018-08-06T12:15:55.763Z,33.12
2018-08-06T12:16:56.013Z,33.19
2018-08-06T12:17:55.764Z,33.09
2018-08-06T12:18:55.511Z,33.23
2018-08-06T12:19:55.543Z,33.36
2018-08-06T12:20:55.896Z,33.39
2018-08-06T12:21:55.541Z,33.58
2018-08-06T12:22:56.048Z,33.69
2018-08-06T12:23:55.808Z,33.77
2018-08-06T12:24:55.830Z,33.79
2018-08-06T12:25:56.339Z,33.65
2018-08-06T12:26:55.841Z,33.55
2018-08-06T12:27:56.112Z,33.5
2018-08-06T12:28:55.846Z,33.53
2018-08-06T12:29:55.581Z,33.67
2018-08-06T12:30:56.121Z,33.69
2018-08-06T12:31:55.599Z,33.77
2018-08-06T12:32:55.601Z,33.84
2018-08-06T12:33:56.121Z,33.65
2018-08-06T12:34:55.627Z,33.49
2018-08-06T12:35:56.147Z,33.39
2018-08-06T12:36:56.145Z,33.34
2018-08-06T12:37:55.907Z,33.32
2018-08-06T12:38:56.167Z,33.34
2018-08-06T12:39:55.924Z,33.24
2018-08-06T12:40:55.927Z,33.2
2018-08-06T12:41:56.181Z,33.15
2018-08-06T12:42:56.176Z,33.12
2018-08-06T12:43:55.934Z,33.2
2018-08-06T12:44:56.197Z,33.32
2018-08-06T12:45:56.212Z,33.28
2018-08-06T12:46:56.211Z,33.28
2018-08-06T12:47:55.968Z,33.27
2018-08-06T12:48:56.224Z,33.31
2018-08-06T12:49:56.005Z,33.36
2018-08-06T12:50:55.723Z,33.32
2018-08-06T12:51:56.007Z,33.45
2018-08-06T12:52:56.568Z,33.3
2018-08-06T12:53:56.265Z,33.37
2018-08-06T12:54:56.012Z,33.52
2018-08-06T12:55:56.016Z,33.55